createdAt,value
2023-04-13T00:00:55.814Z,0.30
2023-04-13T00:01:57.584Z,0.30
2023-04-13T00:03:02.210Z,0.28
2023-04-13T00:04:05.594Z,0.38
2023-04-13T00:05:10.018Z,0.30
2023-04-13T00:06:12.916Z,0.22
2023-04-13T00:07:17.012Z,0.30
2023-04-13T00:08:22.828Z,0.17
2023-04-13T00:09:25.920Z,0.10
2023-04-13T00:10:28.604Z,0.30
2023-04-13T00:11:32.004Z,0.10
2023-04-13T00:12:34.843Z,0.20
2023-04-13T00:13:41.282Z,0.30
2023-04-13T00:14:44.358Z,0.30
2023-04-13T00:15:46.185Z,0.10
2023-04-13T00:16:48.964Z,0.10
2023-04-13T00:17:51.452Z,0.30
2023-04-13T00:18:54.226Z,0.28
2023-04-13T00:19:58.122Z,0.22
2023-04-13T00:21:01.076Z,0.38
2023-04-13T00:22:03.075Z,0.20
2023-04-13T00:23:05.794Z,0.25
2023-04-13T00:24:09.033Z,0.30
2023-04-13T00:25:14.437Z,0.20
2023-04-13T00:26:16.452Z,0.30
2023-04-13T00:27:19.109Z,0.38
2023-04-13T00:28:21.462Z,0.35
2023-04-13T00:29:24.179Z,0.25
2023-04-13T00:30:26.160Z,0.38
2023-04-13T00:31:29.581Z,0.20
2023-04-13T00:32:31.562Z,0.20
2023-04-13T00:33:34.292Z,0.22
2023-04-13T00:34:36.011Z,0.20
2023-04-13T00:35:41.138Z,0.20
2023-04-13T00:36:42.867Z,0.35
2023-04-13T00:37:47.039Z,0.30
2023-04-13T00:38:48.754Z,0.20
2023-04-13T00:39:52.836Z,0.28
2023-04-13T00:40:55.957Z,0.20
2023-04-13T00:41:58.664Z,0.30
2023-04-13T00:43:02.212Z,0.38
2023-04-13T00:44:04.378Z,0.30
2023-04-13T00:45:09.579Z,0.20
2023-04-13T00:46:11.498Z,0.60
2023-04-13T00:47:17.716Z,0.75
2023-04-13T00:48:19.520Z,0.50
2023-04-13T00:49:22.968Z,0.47
2023-04-13T00:50:24.784Z,0.50
2023-04-13T00:51:27.544Z,0.20
2023-04-13T00:52:29.514Z,0.20
2023-04-13T00:53:33.546Z,0.40
2023-04-13T00:54:35.671Z,0.82
2023-04-13T00:55:42.474Z,0.40
2023-04-13T00:56:44.718Z,0.38
2023-04-13T00:57:49.972Z,0.20
2023-04-13T00:58:51.861Z,0.20
2023-04-13T00:59:54.651Z,0.30
2023-04-13T01:00:56.329Z,0.17
2023-04-13T01:02:02.164Z,0.25
2023-04-13T01:03:04.149Z,0.20
2023-04-13T01:04:06.935Z,0.32
2023-04-13T01:05:12.182Z,0.30
2023-04-13T01:06:21.205Z,0.40
2023-04-13T01:07:30.129Z,0.30
2023-04-13T01:08:37.204Z,0.40
2023-04-13T01:09:42.112Z,0.38
2023-04-13T01:10:51.656Z,0.68
2023-04-13T01:11:58.161Z,0.40
2023-04-13T01:13:09.577Z,0.30
2023-04-13T01:14:15.379Z,0.32
2023-04-13T01:15:18.664Z,0.50
2023-04-13T01:16:22.275Z,0.30
2023-04-13T01:17:28.701Z,0.28
2023-04-13T01:18:34.757Z,0.30
2023-04-13T01:19:52.199Z,0.25
2023-04-13T01:20:55.044Z,0.30
2023-04-13T01:21:57.934Z,0.28
2023-04-13T01:23:02.163Z,0.50
2023-04-13T01:24:17.009Z,0.40
2023-04-13T01:25:28.174Z,0.20
2023-04-13T01:26:38.832Z,0.50
2023-04-13T01:27:46.918Z,0.50
2023-04-13T01:28:51.257Z,0.40
2023-04-13T01:29:56.871Z,0.10
2023-04-13T01:31:01.547Z,0.20
2023-04-13T01:32:03.463Z,0.43
2023-04-13T01:33:06.839Z,0.40
2023-04-13T01:34:09.123Z,0.50
2023-04-13T01:35:11.855Z,0.40
2023-04-13T01:36:14.452Z,0.40
2023-04-13T01:37:17.782Z,0.40
2023-04-13T01:38:24.602Z,0.22
2023-04-13T01:39:32.054Z,0.40
2023-04-13T01:40:36.773Z,0.40
2023-04-13T01:41:39.411Z,0.45
2023-04-13T01:42:43.282Z,0.60
2023-04-13T01:43:46.264Z,0.20
2023-04-13T01:44:47.954Z,0.20
2023-04-13T01:45:54.879Z,0.45
2023-04-13T01:47:02.265Z,0.60
2023-04-13T01:48:09.885Z,0.30
2023-04-13T01:49:11.823Z,0.30
2023-04-13T01:50:19.373Z,0.47
2023-04-13T01:51:24.303Z,0.38
2023-04-13T01:52:28.202Z,0.35
2023-04-13T01:53:31.518Z,0.25
2023-04-13T01:54:34.889Z,0.55
2023-04-13T01:55:38.305Z,0.40
2023-04-13T01:56:41.614Z,0.22
2023-04-13T01:57:47.274Z,0.28
2023-04-13T01:58:52.011Z,0.40
2023-04-13T01:59:53.713Z,0.30
2023-04-13T02:00:56.388Z,0.40
2023-04-13T02:01:59.826Z,0.40
2023-04-13T02:03:04.414Z,0.40
2023-04-13T02:04:07.762Z,0.47
2023-04-13T02:05:10.684Z,0.32
2023-04-13T02:06:13.899Z,0.40
2023-04-13T02:07:16.311Z,0.30
2023-04-13T02:08:20.635Z,0.43
2023-04-13T02:09:22.432Z,0.40
2023-04-13T02:10:26.440Z,0.32
2023-04-13T02:11:28.473Z,0.30
2023-04-13T02:12:31.123Z,0.30
2023-04-13T02:13:35.408Z,0.35
2023-04-13T02:14:37.384Z,0.32
2023-04-13T02:15:41.451Z,0.25
2023-04-13T02:16:43.245Z,0.65
2023-04-13T02:17:46.002Z,0.40
2023-04-13T02:18:49.222Z,0.40
2023-04-13T02:19:50.928Z,0.50
2023-04-13T02:21:00.516Z,0.40
2023-04-13T02:22:02.224Z,0.60
2023-04-13T02:23:04.953Z,0.38
2023-04-13T02:24:07.572Z,0.40
2023-04-13T02:25:11.619Z,0.30
2023-04-13T02:26:14.181Z,0.60
2023-04-13T02:27:17.189Z,0.43
2023-04-13T02:28:18.906Z,0.63
2023-04-13T02:29:24.116Z,0.40
2023-04-13T02:30:26.098Z,0.52
2023-04-13T02:31:31.955Z,0.35
2023-04-13T02:32:35.391Z,0.20
2023-04-13T02:33:39.836Z,0.47
2023-04-13T02:34:42.644Z,0.32
2023-04-13T02:35:45.621Z,0.50
2023-04-13T02:36:47.385Z,0.47
2023-04-13T02:37:50.041Z,0.40
2023-04-13T02:38:53.027Z,0.40
2023-04-13T02:39:55.811Z,0.30
2023-04-13T02:40:59.109Z,0.50
2023-04-13T02:42:02.300Z,0.43
2023-04-13T02:43:04.289Z,0.40
2023-04-13T02:44:06.976Z,0.35
2023-04-13T02:45:12.228Z,0.30
2023-04-13T02:46:15.874Z,0.57
2023-04-13T02:47:17.635Z,0.22
2023-04-13T02:48:20.539Z,0.43
2023-04-13T02:49:22.295Z,0.45
2023-04-13T02:50:25.055Z,0.50
2023-04-13T02:51:27.981Z,0.40
2023-04-13T02:52:31.056Z,0.40
2023-04-13T02:53:32.767Z,0.40
2023-04-13T02:54:35.496Z,0.20
2023-04-13T02:55:37.696Z,0.25
2023-04-13T02:56:40.478Z,0.60
2023-04-13T02:57:42.325Z,0.40
2023-04-13T02:58:45.905Z,0.47
2023-04-13T02:59:47.869Z,0.60
2023-04-13T03:00:52.073Z,0.73
2023-04-13T03:01:53.997Z,0.40
2023-04-13T03:02:57.387Z,0.40
2023-04-13T03:03:59.317Z,0.40
2023-04-13T03:05:02.808Z,0.30
2023-04-13T03:06:04.843Z,0.32
2023-04-13T03:07:09.997Z,0.50
2023-04-13T03:08:11.835Z,0.40
2023-04-13T03:09:16.118Z,0.45
2023-04-13T03:10:18.806Z,0.28
2023-04-13T03:11:23.523Z,0.38
2023-04-13T03:12:26.476Z,0.73
2023-04-13T03:13:29.163Z,0.30
2023-04-13T03:14:33.158Z,0.35
2023-04-13T03:15:36.233Z,0.55
2023-04-13T03:16:39.324Z,0.40
2023-04-13T03:17:44.041Z,0.40
2023-04-13T03:18:45.877Z,0.47
2023-04-13T03:19:49.532Z,0.40
2023-04-13T03:20:51.207Z,0.50
2023-04-13T03:21:54.017Z,0.30
2023-04-13T03:22:56.243Z,0.30
2023-04-13T03:23:59.363Z,0.20
2023-04-13T03:25:01.537Z,0.45
2023-04-13T03:26:04.251Z,0.38
2023-04-13T03:27:06.134Z,0.17
2023-04-13T03:28:08.911Z,0.30
2023-04-13T03:29:10.922Z,0.30
2023-04-13T03:30:14.149Z,0.40
2023-04-13T03:31:15.969Z,0.30
2023-04-13T03:32:21.366Z,0.38
2023-04-13T03:33:23.085Z,0.35
2023-04-13T03:34:25.849Z,0.40
2023-04-13T03:35:27.850Z,0.40
2023-04-13T03:36:31.539Z,0.20
2023-04-13T03:37:40.206Z,0.25
2023-04-13T03:38:43.076Z,0.25
2023-04-13T03:39:44.841Z,0.30
2023-04-13T03:40:47.627Z,0.50
2023-04-13T03:41:49.317Z,0.30
2023-04-13T03:42:52.025Z,0.43
2023-04-13T03:43:53.781Z,0.57
2023-04-13T03:44:56.437Z,0.30
2023-04-13T03:45:58.191Z,0.50
2023-04-13T03:47:01.159Z,0.40
2023-04-13T03:48:05.901Z,0.20
2023-04-13T03:49:10.445Z,0.75
2023-04-13T03:50:12.238Z,0.50
2023-04-13T03:51:14.913Z,0.50
2023-04-13T03:52:16.645Z,0.30
2023-04-13T03:53:19.340Z,0.43
2023-04-13T03:54:21.378Z,0.30
2023-04-13T03:55:24.162Z,0.30
2023-04-13T03:56:26.713Z,0.70
2023-04-13T03:57:29.435Z,0.45
2023-04-13T03:58:31.278Z,0.47
2023-04-13T03:59:33.980Z,0.57
2023-04-13T04:00:35.834Z,0.25
2023-04-13T04:01:38.650Z,0.30
2023-04-13T04:02:40.644Z,0.60
2023-04-13T04:03:45.046Z,0.50
2023-04-13T04:04:46.836Z,0.60
2023-04-13T04:05:49.591Z,0.20
2023-04-13T04:06:51.411Z,0.20
2023-04-13T04:07:54.072Z,0.45
2023-04-13T04:08:55.963Z,0.52
2023-04-13T04:09:58.659Z,0.30
2023-04-13T04:11:00.298Z,0.25
2023-04-13T04:12:03.769Z,0.52
2023-04-13T04:13:06.040Z,0.43
2023-04-13T04:14:08.736Z,0.50
2023-04-13T04:15:10.878Z,0.57
2023-04-13T04:16:13.687Z,0.40
2023-04-13T04:17:15.470Z,0.50
2023-04-13T04:18:18.154Z,0.38
2023-04-13T04:19:21.221Z,0.50
2023-04-13T04:20:24.063Z,0.50
2023-04-13T04:21:34.359Z,0.40
2023-04-13T04:22:37.147Z,0.40
2023-04-13T04:23:40.328Z,0.32
2023-04-13T04:24:42.465Z,0.60
2023-04-13T04:25:45.349Z,0.45
2023-04-13T04:26:50.199Z,0.40
2023-04-13T04:27:53.117Z,0.60
2023-04-13T04:29:03.111Z,0.40
2023-04-13T04:30:07.154Z,0.52
2023-04-13T04:31:10.820Z,0.60
2023-04-13T04:32:15.438Z,0.68
2023-04-13T04:33:17.110Z,0.30
2023-04-13T04:34:19.964Z,0.40
2023-04-13T04:35:26.113Z,0.30
2023-04-13T04:36:28.835Z,0.40
2023-04-13T04:37:37.692Z,0.60
2023-04-13T04:38:41.295Z,0.32
2023-04-13T04:39:44.554Z,0.30
2023-04-13T04:40:47.301Z,0.50
2023-04-13T04:41:49.177Z,0.30
2023-04-13T04:42:51.991Z,0.50
2023-04-13T04:43:56.734Z,0.60
2023-04-13T04:44:59.875Z,0.88
2023-04-13T04:46:04.458Z,0.35
2023-04-13T04:47:07.555Z,0.50
2023-04-13T04:48:09.517Z,0.40
2023-04-13T04:49:12.239Z,0.80
2023-04-13T04:50:14.486Z,0.52
2023-04-13T04:51:24.777Z,0.55
2023-04-13T04:52:26.459Z,0.38
2023-04-13T04:53:29.126Z,0.55
2023-04-13T04:54:30.880Z,0.28
2023-04-13T04:55:34.617Z,0.28
2023-04-13T04:56:36.313Z,0.45
2023-04-13T04:57:39.027Z,0.35
2023-04-13T04:58:40.714Z,0.80
2023-04-13T04:59:43.401Z,0.50
2023-04-13T05:00:45.219Z,0.50
2023-04-13T05:01:49.805Z,0.52
2023-04-13T05:02:51.813Z,0.52
2023-04-13T05:03:54.582Z,0.75
2023-04-13T05:04:57.403Z,0.65
2023-04-13T05:06:00.672Z,0.68
2023-04-13T05:07:03.774Z,0.38
2023-04-13T05:08:06.607Z,0.60
2023-04-13T05:09:09.030Z,0.40
2023-04-13T05:10:11.964Z,0.60
2023-04-13T05:11:14.688Z,0.50
2023-04-13T05:12:16.847Z,0.55
2023-04-13T05:13:19.509Z,0.98
2023-04-13T05:14:21.279Z,0.70
2023-04-13T05:15:24.996Z,0.73
2023-04-13T05:16:30.961Z,0.40
2023-04-13T05:17:32.835Z,0.50
2023-04-13T05:18:44.935Z,0.50
2023-04-13T05:19:48.144Z,0.50
2023-04-13T05:20:49.884Z,0.40
2023-04-13T05:21:52.568Z,0.47
2023-04-13T05:22:55.631Z,0.68
2023-04-13T05:23:58.316Z,0.77
2023-04-13T05:25:00.042Z,0.85
2023-04-13T05:26:02.730Z,0.45
2023-04-13T05:27:04.453Z,0.68
2023-04-13T05:28:07.239Z,0.63
2023-04-13T05:29:09.358Z,0.47
2023-04-13T05:30:12.629Z,0.50
2023-04-13T05:31:15.744Z,0.57
2023-04-13T05:32:18.516Z,0.43
2023-04-13T05:33:20.616Z,0.40
2023-04-13T05:34:23.307Z,0.68
2023-04-13T05:35:27.982Z,0.50
2023-04-13T05:36:32.015Z,0.50
2023-04-13T05:37:34.777Z,0.57
2023-04-13T05:38:38.896Z,0.50
2023-04-13T05:39:41.621Z,0.55
2023-04-13T05:40:43.378Z,0.50
2023-04-13T05:41:46.112Z,0.80
2023-04-13T05:42:47.997Z,0.82
2023-04-13T05:43:51.384Z,0.60
2023-04-13T05:44:53.103Z,0.60
2023-04-13T05:45:55.950Z,0.70
2023-04-13T05:46:58.178Z,0.55
2023-04-13T05:48:00.945Z,0.68
2023-04-13T05:49:02.754Z,0.82
2023-04-13T05:50:06.064Z,0.30
2023-04-13T05:51:08.348Z,0.40
2023-04-13T05:52:11.034Z,0.52
2023-04-13T05:53:12.798Z,0.32
2023-04-13T05:54:17.484Z,0.50
2023-04-13T05:55:21.952Z,0.70
2023-04-13T05:56:23.995Z,0.70
2023-04-13T05:57:27.170Z,0.65
2023-04-13T05:58:28.992Z,0.28
2023-04-13T05:59:31.993Z,0.40
2023-04-13T06:00:34.458Z,0.45
2023-04-13T06:01:37.910Z,0.85
2023-04-13T06:02:41.759Z,0.60
2023-04-13T06:03:46.288Z,0.52
2023-04-13T06:04:48.863Z,0.82
2023-04-13T06:05:52.508Z,0.57
2023-04-13T06:06:55.908Z,0.65
2023-04-13T06:07:59.745Z,0.77
2023-04-13T06:09:02.535Z,0.73
2023-04-13T06:10:06.955Z,0.80
2023-04-13T06:11:09.787Z,0.60
2023-04-13T06:12:11.536Z,0.93
2023-04-13T06:13:14.588Z,0.50
2023-04-13T06:14:17.788Z,0.70
2023-04-13T06:15:20.863Z,0.85
2023-04-13T06:16:23.348Z,0.70
2023-04-13T06:17:26.519Z,0.70
2023-04-13T06:18:28.830Z,0.75
2023-04-13T06:19:31.763Z,0.70
2023-04-13T06:20:34.328Z,0.70
2023-04-13T06:21:37.150Z,0.63
2023-04-13T06:22:38.853Z,0.40
2023-04-13T06:23:41.611Z,0.80
2023-04-13T06:24:43.268Z,0.50
2023-04-13T06:25:47.409Z,0.30
2023-04-13T06:26:49.109Z,0.73
2023-04-13T06:27:51.866Z,0.93
2023-04-13T06:28:53.600Z,1.25
2023-04-13T06:29:56.877Z,0.75
2023-04-13T06:30:58.639Z,0.85
2023-04-13T06:32:01.416Z,0.63
2023-04-13T06:33:04.285Z,0.98
2023-04-13T06:34:06.057Z,0.80
2023-04-13T06:35:09.231Z,0.68
2023-04-13T06:36:11.229Z,0.60
2023-04-13T06:37:13.984Z,0.32
2023-04-13T06:38:15.665Z,0.80
2023-04-13T06:39:18.335Z,0.68
2023-04-13T06:40:20.641Z,0.82
2023-04-13T06:41:24.664Z,0.88
2023-04-13T06:42:26.606Z,0.70
2023-04-13T06:43:29.934Z,0.90
2023-04-13T06:44:31.715Z,0.70
2023-04-13T06:45:34.743Z,0.63
2023-04-13T06:46:36.504Z,0.85
2023-04-13T06:47:40.958Z,0.60
2023-04-13T06:48:42.878Z,0.80
2023-04-13T06:49:45.952Z,1.02
2023-04-13T06:50:47.651Z,0.85
2023-04-13T06:51:50.391Z,0.93
2023-04-13T06:52:56.104Z,0.93
2023-04-13T06:53:57.811Z,0.98
2023-04-13T06:55:00.513Z,0.70
2023-04-13T06:56:03.181Z,0.68
2023-04-13T06:57:06.565Z,0.77
2023-04-13T06:58:09.188Z,0.85
2023-04-13T06:59:11.098Z,0.80
2023-04-13T07:00:29.115Z,0.80
2023-04-13T07:01:32.794Z,0.75
2023-04-13T07:02:34.846Z,0.95
2023-04-13T07:03:37.704Z,1.00
2023-04-13T07:04:39.720Z,0.80
2023-04-13T07:05:43.516Z,0.90
2023-04-13T07:06:45.526Z,1.00
2023-04-13T07:07:48.248Z,0.90
2023-04-13T07:08:49.954Z,1.08
2023-04-13T07:09:52.798Z,0.80
2023-04-13T07:10:55.265Z,0.55
2023-04-13T07:11:58.005Z,0.80
2023-04-13T07:13:01.019Z,0.85
2023-04-13T07:14:03.849Z,0.70
2023-04-13T07:15:06.943Z,0.77
2023-04-13T07:16:12.182Z,0.65
2023-04-13T07:17:14.304Z,0.82
2023-04-13T07:18:16.981Z,0.98
2023-04-13T07:19:20.517Z,0.57
2023-04-13T07:20:23.254Z,0.73
2023-04-13T07:21:24.999Z,0.70
2023-04-13T07:22:31.691Z,0.60
2023-04-13T07:23:34.534Z,0.52
2023-04-13T07:24:36.710Z,0.57
2023-04-13T07:25:39.365Z,0.75
2023-04-13T07:26:42.092Z,0.95
2023-04-13T07:27:44.094Z,0.88
2023-04-13T07:28:48.259Z,0.73
2023-04-13T07:29:52.286Z,0.60
2023-04-13T07:30:54.008Z,0.95
2023-04-13T07:32:01.264Z,0.68
2023-04-13T07:33:04.109Z,0.82
2023-04-13T07:34:05.917Z,1.05
2023-04-13T07:35:09.324Z,1.00
2023-04-13T07:36:12.174Z,1.00
2023-04-13T07:37:13.853Z,0.85
2023-04-13T07:38:16.592Z,0.93
2023-04-13T07:39:19.010Z,1.10
2023-04-13T07:40:21.665Z,0.70
2023-04-13T07:41:24.275Z,0.80
2023-04-13T07:42:27.013Z,1.00
2023-04-13T07:43:29.736Z,0.80
2023-04-13T07:44:34.181Z,0.70
2023-04-13T07:45:35.871Z,0.93
2023-04-13T07:46:39.417Z,0.60
2023-04-13T07:47:41.612Z,0.57
2023-04-13T07:48:44.855Z,0.68
2023-04-13T07:49:47.625Z,0.55
2023-04-13T07:50:49.347Z,0.68
2023-04-13T07:51:53.614Z,0.73
2023-04-13T07:52:56.308Z,0.68
2023-04-13T07:53:58.068Z,0.52
2023-04-13T07:55:03.114Z,0.55
2023-04-13T07:56:05.577Z,0.77
2023-04-13T07:57:08.279Z,0.73
2023-04-13T07:58:10.932Z,0.45
2023-04-13T07:59:13.919Z,0.75
2023-04-13T08:00:20.655Z,0.70
2023-04-13T08:01:22.589Z,0.50
2023-04-13T08:02:25.615Z,0.40
2023-04-13T08:03:31.009Z,0.45
2023-04-13T08:04:36.128Z,1.08
2023-04-13T08:05:38.905Z,0.80
2023-04-13T08:06:40.860Z,0.70
2023-04-13T08:07:46.529Z,0.55
2023-04-13T08:08:48.623Z,0.55
2023-04-13T08:09:52.646Z,0.93
2023-04-13T08:10:55.444Z,0.43
2023-04-13T08:11:58.898Z,0.30
2023-04-13T08:13:00.922Z,0.70
2023-04-13T08:14:03.770Z,0.47
2023-04-13T08:15:07.587Z,0.38
2023-04-13T08:16:11.483Z,0.70
2023-04-13T08:17:14.211Z,1.25
2023-04-13T08:18:15.950Z,0.57
2023-04-13T08:19:18.588Z,0.50
2023-04-13T08:20:21.182Z,0.63
2023-04-13T08:21:23.858Z,0.60
2023-04-13T08:22:25.546Z,0.75
2023-04-13T08:23:28.410Z,0.82
2023-04-13T08:24:31.125Z,0.52
2023-04-13T08:25:34.375Z,0.80
2023-04-13T08:26:36.222Z,0.68
2023-04-13T08:27:38.930Z,1.00
2023-04-13T08:28:40.693Z,0.65
2023-04-13T08:29:43.359Z,0.65
2023-04-13T08:30:45.821Z,0.98
2023-04-13T08:31:50.391Z,1.30
2023-04-13T08:32:53.697Z,0.73
2023-04-13T08:33:57.704Z,0.70
2023-04-13T08:34:59.513Z,0.80
2023-04-13T08:36:02.275Z,0.57
2023-04-13T08:37:04.061Z,0.63
2023-04-13T08:38:07.081Z,0.47
2023-04-13T08:39:10.443Z,0.70
2023-04-13T08:40:13.589Z,0.68
2023-04-13T08:41:17.801Z,0.80
2023-04-13T08:42:20.458Z,0.85
2023-04-13T08:43:23.209Z,0.98
2023-04-13T08:44:25.106Z,0.80
2023-04-13T08:45:30.541Z,0.60
2023-04-13T08:46:33.208Z,0.68
2023-04-13T08:47:37.314Z,0.95
2023-04-13T08:48:52.617Z,0.75
2023-04-13T08:49:58.428Z,1.23
2023-04-13T08:51:02.595Z,1.13
2023-04-13T08:52:08.775Z,0.90
2023-04-13T08:53:10.579Z,0.60
2023-04-13T08:54:14.847Z,0.57
2023-04-13T08:55:17.888Z,0.90
2023-04-13T08:56:28.174Z,0.95
2023-04-13T08:57:37.533Z,0.98
2023-04-13T08:58:42.962Z,1.08
2023-04-13T08:59:45.816Z,0.85
2023-04-13T09:00:50.041Z,0.60
2023-04-13T09:01:53.310Z,1.70
2023-04-13T09:03:04.912Z,0.65
2023-04-13T09:04:11.618Z,0.90
2023-04-13T09:05:16.385Z,0.80
2023-04-13T09:06:23.025Z,0.90
2023-04-13T09:07:27.971Z,0.88
2023-04-13T09:08:34.563Z,0.82
2023-04-13T09:09:38.280Z,0.90
2023-04-13T09:10:42.235Z,0.98
2023-04-13T09:11:46.393Z,0.60
2023-04-13T09:12:50.889Z,0.55
2023-04-13T09:13:53.808Z,1.10
2023-04-13T09:14:55.634Z,0.77
2023-04-13T09:15:58.298Z,1.05
2023-04-13T09:17:00.052Z,0.75
2023-04-13T09:18:10.998Z,0.73
2023-04-13T09:19:13.958Z,0.55
2023-04-13T09:20:18.901Z,1.05
2023-04-13T09:21:20.675Z,0.52
2023-04-13T09:22:23.327Z,0.80
2023-04-13T09:23:26.237Z,0.63
2023-04-13T09:24:40.168Z,0.90
2023-04-13T09:25:42.536Z,0.80
2023-04-13T09:26:46.109Z,0.82
2023-04-13T09:27:47.809Z,0.93
2023-04-13T09:28:54.297Z,0.63
2023-04-13T09:30:00.867Z,0.90
2023-04-13T09:31:03.965Z,0.70
2023-04-13T09:32:07.715Z,0.73
2023-04-13T09:33:11.695Z,0.80
2023-04-13T09:34:15.352Z,1.02
2023-04-13T09:35:17.873Z,0.98
2023-04-13T09:36:22.497Z,0.80
2023-04-13T09:37:24.512Z,0.90
2023-04-13T09:38:31.388Z,0.90
2023-04-13T09:39:34.231Z,0.90
2023-04-13T09:40:39.033Z,0.68
2023-04-13T09:41:46.557Z,0.80
2023-04-13T09:42:55.874Z,0.60
2023-04-13T09:43:57.968Z,0.77
2023-04-13T09:45:00.966Z,0.57
2023-04-13T09:46:03.846Z,0.88
2023-04-13T09:47:07.773Z,0.68
2023-04-13T09:48:20.609Z,1.00
2023-04-13T09:49:24.206Z,0.80
2023-04-13T09:50:28.270Z,0.88
2023-04-13T09:51:38.369Z,1.00
2023-04-13T09:52:40.623Z,0.70
2023-04-13T09:53:45.751Z,0.90
2023-04-13T09:54:49.909Z,1.13
2023-04-13T09:55:59.651Z,0.55
2023-04-13T09:57:01.380Z,0.77
2023-04-13T09:58:11.093Z,1.00
2023-04-13T09:59:13.318Z,0.55
2023-04-13T10:00:21.055Z,0.68
2023-04-13T10:01:24.783Z,0.52
2023-04-13T10:02:27.272Z,1.13
2023-04-13T10:03:32.221Z,1.13
2023-04-13T10:04:34.930Z,0.75
2023-04-13T10:05:51.144Z,0.60
2023-04-13T10:07:00.935Z,0.70
2023-04-13T10:08:02.616Z,0.90
2023-04-13T10:09:05.754Z,0.70
2023-04-13T10:10:09.676Z,1.08
2023-04-13T10:11:14.374Z,0.88
2023-04-13T10:12:16.961Z,0.80
2023-04-13T10:13:24.436Z,0.57
2023-04-13T10:14:33.141Z,0.70
2023-04-13T10:15:50.951Z,0.80
2023-04-13T10:17:33.566Z,0.55
2023-04-13T10:18:42.699Z,0.57
2023-04-13T10:19:47.416Z,0.60
2023-04-13T10:20:50.351Z,0.40
2023-04-13T10:21:54.831Z,0.60
2023-04-13T10:22:57.231Z,0.70
2023-04-13T10:24:00.229Z,0.47
2023-04-13T10:25:03.144Z,0.50
2023-04-13T10:26:06.539Z,0.50
2023-04-13T10:27:15.090Z,0.50
2023-04-13T10:28:17.470Z,0.55
2023-04-13T10:29:28.381Z,0.50
2023-04-13T10:30:31.310Z,0.50
2023-04-13T10:31:39.570Z,0.80
2023-04-13T10:32:42.736Z,0.40
2023-04-13T10:33:48.921Z,0.52
2023-04-13T10:34:52.936Z,0.60
2023-04-13T10:35:57.765Z,0.55
2023-04-13T10:37:03.761Z,0.50
2023-04-13T10:38:08.670Z,0.57
2023-04-13T10:39:10.850Z,0.45
2023-04-13T10:40:16.256Z,0.47
2023-04-13T10:41:24.915Z,0.50
2023-04-13T10:42:28.107Z,0.70
2023-04-13T10:43:32.487Z,0.70
2023-04-13T10:44:45.256Z,0.50
2023-04-13T10:45:47.923Z,0.60
2023-04-13T10:46:50.894Z,0.63
2023-04-13T10:47:54.238Z,0.60
2023-04-13T10:48:59.380Z,0.50
2023-04-13T10:50:02.293Z,0.70
2023-04-13T10:51:05.965Z,0.50
2023-04-13T10:52:10.093Z,0.50
2023-04-13T10:53:11.864Z,0.70
2023-04-13T10:54:15.217Z,0.52
2023-04-13T10:55:19.124Z,0.63
2023-04-13T10:56:21.868Z,0.65
2023-04-13T10:57:23.599Z,0.65
2023-04-13T10:58:28.537Z,0.50
2023-04-13T10:59:53.618Z,0.50
2023-04-13T11:00:59.695Z,0.60
2023-04-13T11:02:02.090Z,0.43
2023-04-13T11:03:06.646Z,0.50
2023-04-13T11:04:15.236Z,0.30
2023-04-13T11:05:20.850Z,0.43
2023-04-13T11:06:23.610Z,0.60
2023-04-13T11:07:26.188Z,0.60
2023-04-13T11:08:30.362Z,0.60
2023-04-13T11:09:32.030Z,0.60
2023-04-13T11:10:34.745Z,0.40
2023-04-13T11:11:39.634Z,0.57
2023-04-13T11:12:49.991Z,0.60
2023-04-13T11:13:52.698Z,0.70
2023-04-13T11:14:54.374Z,0.60
2023-04-13T11:16:03.878Z,0.38
2023-04-13T11:17:07.985Z,0.85
2023-04-13T11:18:10.429Z,1.02
2023-04-13T11:19:14.506Z,0.30
2023-04-13T11:20:16.687Z,0.63
2023-04-13T11:21:19.384Z,0.80
2023-04-13T11:22:23.559Z,0.50
2023-04-13T11:23:26.236Z,0.30
2023-04-13T11:24:33.792Z,0.60
2023-04-13T11:25:36.581Z,0.50
2023-04-13T11:26:39.783Z,0.50
2023-04-13T11:27:41.589Z,0.45
2023-04-13T11:28:46.185Z,0.70
2023-04-13T11:29:57.459Z,0.80
2023-04-13T11:31:01.511Z,1.00
2023-04-13T11:32:05.933Z,0.70
2023-04-13T11:33:09.874Z,0.82
2023-04-13T11:34:14.035Z,0.50
2023-04-13T11:35:16.553Z,0.38
2023-04-13T11:36:20.445Z,0.40
2023-04-13T11:37:22.809Z,0.70
2023-04-13T11:38:25.683Z,0.55
2023-04-13T11:39:29.501Z,0.60
2023-04-13T11:40:32.451Z,0.60
2023-04-13T11:41:39.339Z,0.60
2023-04-13T11:42:43.150Z,0.70
2023-04-13T11:43:46.145Z,0.50
2023-04-13T11:44:49.373Z,0.80
2023-04-13T11:45:52.147Z,0.80
2023-04-13T11:46:54.074Z,0.68
2023-04-13T11:47:57.831Z,0.68
2023-04-13T11:48:59.975Z,0.60
2023-04-13T11:50:04.604Z,0.40
2023-04-13T11:51:06.622Z,0.20
2023-04-13T11:52:09.386Z,0.55
2023-04-13T11:53:12.214Z,0.50
2023-04-13T11:54:14.127Z,0.65
2023-04-13T11:55:23.302Z,0.80
2023-04-13T11:56:25.971Z,0.50
2023-04-13T11:57:29.276Z,0.70
2023-04-13T11:58:32.882Z,0.50
2023-04-13T11:59:36.343Z,0.45
2023-04-13T12:00:41.164Z,0.45
2023-04-13T12:01:50.201Z,0.40
2023-04-13T12:04:14.880Z,0.45
2023-04-13T12:05:24.263Z,0.40
2023-04-13T12:06:27.863Z,0.70
2023-04-13T12:07:31.291Z,0.40
2023-04-13T12:08:34.421Z,0.40
2023-04-13T12:09:55.350Z,0.43
2023-04-13T12:13:33.247Z,0.80
2023-04-13T12:14:57.624Z,0.63
2023-04-13T12:17:34.682Z,1.33
2023-04-13T12:18:37.442Z,1.27
2023-04-13T12:19:41.306Z,1.80
2023-04-13T12:20:48.681Z,1.25
2023-04-13T12:21:52.878Z,0.55
2023-04-13T12:23:03.172Z,0.95
2023-04-13T12:24:11.561Z,1.10
2023-04-13T12:25:17.607Z,0.80
2023-04-13T12:26:59.472Z,0.80
2023-04-13T12:27:43.891Z,0.50
2023-04-13T12:28:46.605Z,0.63
2023-04-13T12:29:49.294Z,0.80
2023-04-13T12:30:51.050Z,0.70
2023-04-13T12:32:00.528Z,0.90
2023-04-13T12:33:02.343Z,0.77
2023-04-13T12:34:07.639Z,0.63
2023-04-13T12:35:10.062Z,0.73
2023-04-13T12:36:14.129Z,0.50
2023-04-13T12:37:16.794Z,0.60
2023-04-13T12:38:18.500Z,0.70
2023-04-13T12:39:21.324Z,0.80
2023-04-13T12:40:23.338Z,0.65
2023-04-13T12:41:26.417Z,0.90
2023-04-13T12:42:28.378Z,0.80
2023-04-13T12:43:31.213Z,0.63
2023-04-13T12:44:34.375Z,0.57
2023-04-13T12:45:37.380Z,0.80
2023-04-13T12:46:40.347Z,0.57
2023-04-13T12:47:43.547Z,0.70
2023-04-13T12:48:45.522Z,0.60
2023-04-13T12:49:48.394Z,0.80
2023-04-13T12:50:50.216Z,0.40
2023-04-13T12:51:54.305Z,0.60
2023-04-13T12:52:56.992Z,0.93
2023-04-13T12:53:58.708Z,0.63
2023-04-13T12:55:02.323Z,0.75
2023-04-13T12:56:05.430Z,0.90
2023-04-13T12:57:07.358Z,0.90
2023-04-13T12:58:11.946Z,0.85
2023-04-13T12:59:14.646Z,0.88
2023-04-13T13:00:18.842Z,0.65
2023-04-13T13:01:21.819Z,0.82
2023-04-13T13:02:24.405Z,0.73
2023-04-13T13:03:27.290Z,0.50
2023-04-13T13:04:32.004Z,0.77
2023-04-13T13:05:34.795Z,0.68
2023-04-13T13:06:38.156Z,0.68
2023-04-13T13:07:42.402Z,0.57
2023-04-13T13:08:44.075Z,0.95
2023-04-13T13:09:46.783Z,1.05
2023-04-13T13:10:48.646Z,0.73
2023-04-13T13:11:51.660Z,0.60
2023-04-13T13:12:53.412Z,1.27
2023-04-13T13:13:56.115Z,0.77
2023-04-13T13:14:58.613Z,0.77
2023-04-13T13:16:01.398Z,0.70
2023-04-13T13:17:03.737Z,0.85
2023-04-13T13:18:08.739Z,0.68
2023-04-13T13:19:11.464Z,0.57
2023-04-13T13:20:13.438Z,0.77
2023-04-13T13:21:16.145Z,0.68
2023-04-13T13:22:17.843Z,0.75
2023-04-13T13:23:21.869Z,0.50
2023-04-13T13:24:23.964Z,0.68
2023-04-13T13:25:26.781Z,0.70
2023-04-13T13:26:36.240Z,0.60
2023-04-13T13:28:54.193Z,0.45
2023-04-13T13:29:57.315Z,0.30
2023-04-13T13:30:59.997Z,0.30
2023-04-13T13:32:02.717Z,0.63
2023-04-13T13:33:04.795Z,0.32
2023-04-13T13:34:07.541Z,0.30
2023-04-13T13:35:10.595Z,0.30
2023-04-13T13:36:14.430Z,0.32
2023-04-13T13:37:16.526Z,0.10
2023-04-13T13:38:19.251Z,0.20
2023-04-13T13:39:22.919Z,0.22
2023-04-13T13:40:25.662Z,0.30
2023-04-13T13:41:27.341Z,0.20
2023-04-13T13:42:40.434Z,0.17
2023-04-13T13:43:50.879Z,0.25
2023-04-13T13:44:53.620Z,0.38
2023-04-13T13:45:56.464Z,0.20
2023-04-13T13:46:58.332Z,0.20
2023-04-13T13:48:01.225Z,0.30
2023-04-13T13:49:03.214Z,0.22
2023-04-13T13:50:07.094Z,0.20
2023-04-13T13:51:08.962Z,0.30
2023-04-13T13:52:11.680Z,0.17
2023-04-13T13:53:13.334Z,0.10
2023-04-13T13:54:16.028Z,0.30
2023-04-13T13:55:20.476Z,0.32
2023-04-13T13:56:23.126Z,0.57
2023-04-13T13:57:25.294Z,0.50
2023-04-13T13:58:27.972Z,0.35
2023-04-13T13:59:32.041Z,0.22
2023-04-13T14:00:34.029Z,0.40
2023-04-13T14:01:37.754Z,0.38
2023-04-13T14:02:39.870Z,0.57
2023-04-13T14:03:42.661Z,0.40
2023-04-13T14:04:44.519Z,0.60
2023-04-13T14:05:47.299Z,0.32
2023-04-13T14:06:49.915Z,0.20
2023-04-13T14:07:52.731Z,0.20
2023-04-13T14:08:55.823Z,0.30
2023-04-13T14:09:58.522Z,0.28
2023-04-13T14:11:03.024Z,0.30
2023-04-13T14:12:06.298Z,0.22
2023-04-13T14:13:08.946Z,0.30
2023-04-13T14:14:20.429Z,0.30
2023-04-13T14:15:24.320Z,0.20
2023-04-13T14:16:26.220Z,0.52